sensor_id;sensor_type;location;lat;lon;timestamp;pressure;altitude;pressure_sealevel;temperature;humidity
49645;BME280;36494;50.730;-1.932;2023-05-21T00:01:08;101692.85;;;12.58;100.00
49645;BME280;36494;50.730;-1.932;2023-05-21T00:03:33;101695.40;;;12.54;100.00
49645;BME280;36494;50.730;-1.932;2023-05-21T00:05:58;101696.60;;;12.50;100.00
49645;BME280;36494;50.730;-1.932;2023-05-21T00:08:23;101693.31;;;12.48;100.00
49645;BME280;36494;50.730;-1.932;2023-05-21T00:10:49;101693.34;;;12.45;100.00
49645;BME280;36494;50.730;-1.932;2023-05-21T00:13:14;101700.26;;;12.41;100.00
49645;BME280;36494;50.730;-1.932;2023-05-21T00:15:39;101697.82;;;12.37;100.00
49645;BME280;36494;50.730;-1.932;2023-05-21T00:18:05;101699.20;;;12.34;100.00
49645;BME280;36494;50.730;-1.932;2023-05-21T00:20:30;101695.58;;;12.29;100.00
49645;BME280;36494;50.730;-1.932;2023-05-21T00:22:55;101694.69;;;12.25;100.00
49645;BME280;36494;50.730;-1.932;2023-05-21T00:25:21;101692.53;;;12.19;100.00
49645;BME280;36494;50.730;-1.932;2023-05-21T00:27:46;101688.57;;;12.18;100.00
49645;BME280;36494;50.730;-1.932;2023-05-21T00:30:11;101692.63;;;12.11;100.00
49645;BME280;36494;50.730;-1.932;2023-05-21T00:32:36;101695.21;;;12.08;100.00
49645;BME280;36494;50.730;-1.932;2023-05-21T00:35:02;101694.73;;;12.04;100.00
49645;BME280;36494;50.730;-1.932;2023-05-21T00:37:27;101688.42;;;12.00;100.00
49645;BME280;36494;50.730;-1.932;2023-05-21T00:39:53;101682.89;;;11.99;100.00
49645;BME280;36494;50.730;-1.932;2023-05-21T00:42:18;101679.51;;;11.96;100.00
49645;BME280;36494;50.730;-1.932;2023-05-21T00:44:44;101675.74;;;11.92;100.00
49645;BME280;36494;50.730;-1.932;2023-05-21T00:47:09;101676.19;;;11.89;100.00
49645;BME280;36494;50.730;-1.932;2023-05-21T00:49:34;101673.56;;;11.84;100.00
49645;BME280;36494;50.730;-1.932;2023-05-21T00:52:00;101671.52;;;11.77;100.00
49645;BME280;36494;50.730;-1.932;2023-05-21T00:54:25;101672.86;;;11.73;100.00
49645;BME280;36494;50.730;-1.932;2023-05-21T00:56:51;101675.48;;;11.69;100.00
49645;BME280;36494;50.730;-1.932;2023-05-21T00:59:16;101675.03;;;11.67;100.00
49645;BME280;36494;50.730;-1.932;2023-05-21T01:01:42;101673.28;;;11.60;100.00
49645;BME280;36494;50.730;-1.932;2023-05-21T01:04:06;101678.95;;;11.57;100.00
49645;BME280;36494;50.730;-1.932;2023-05-21T01:06:32;101675.45;;;11.56;100.00
49645;BME280;36494;50.730;-1.932;2023-05-21T01:08:57;101676.36;;;11.50;100.00
49645;BME280;36494;50.730;-1.932;2023-05-21T01:11:27;101677.92;;;11.46;100.00
49645;BME280;36494;50.730;-1.932;2023-05-21T01:13:48;101676.59;;;11.40;100.00
49645;BME280;36494;50.730;-1.932;2023-05-21T01:16:13;101674.14;;;11.38;100.00
49645;BME280;36494;50.730;-1.932;2023-05-21T01:18:38;101671.17;;;11.33;100.00
49645;BME280;36494;50.730;-1.932;2023-05-21T01:21:04;101667.71;;;11.33;100.00
49645;BME280;36494;50.730;-1.932;2023-05-21T01:23:29;101662.62;;;11.27;100.00
49645;BME280;36494;50.730;-1.932;2023-05-21T01:25:54;101661.81;;;11.22;100.00
49645;BME280;36494;50.730;-1.932;2023-05-21T01:28:20;101662.97;;;11.20;100.00
49645;BME280;36494;50.730;-1.932;2023-05-21T01:30:45;101662.67;;;11.13;100.00
49645;BME280;36494;50.730;-1.932;2023-05-21T01:33:14;101663.81;;;11.13;100.00
49645;BME280;36494;50.730;-1.932;2023-05-21T01:35:38;101666.36;;;11.11;100.00
49645;BME280;36494;50.730;-1.932;2023-05-21T01:38:09;101664.38;;;11.06;100.00
49645;BME280;36494;50.730;-1.932;2023-05-21T01:40:33;101665.89;;;10.97;100.00
49645;BME280;36494;50.730;-1.932;2023-05-21T01:42:52;101671.82;;;10.91;100.00
49645;BME280;36494;50.730;-1.932;2023-05-21T01:45:17;101673.21;;;10.88;100.00
49645;BME280;36494;50.730;-1.932;2023-05-21T01:47:44;101675.87;;;10.86;100.00
49645;BME280;36494;50.730;-1.932;2023-05-21T01:50:08;101676.98;;;10.81;100.00
49645;BME280;36494;50.730;-1.932;2023-05-21T01:52:33;101672.22;;;10.74;100.00
49645;BME280;36494;50.730;-1.932;2023-05-21T01:54:58;101671.38;;;10.70;100.00
49645;BME280;36494;50.730;-1.932;2023-05-21T01:57:24;101671.64;;;10.66;100.00
49645;BME280;36494;50.730;-1.932;2023-05-21T01:59:50;101666.39;;;10.62;100.00
49645;BME280;36494;50.730;-1.932;2023-05-21T02:02:15;101667.55;;;10.57;100.00
49645;BME280;36494;50.730;-1.932;2023-05-21T02:04:40;101665.99;;;10.54;100.00
49645;BME280;36494;50.730;-1.932;2023-05-21T02:07:06;101664.28;;;10.47;100.00
49645;BME280;36494;50.730;-1.932;2023-05-21T02:09:31;101667.24;;;10.46;100.00
49645;BME280;36494;50.730;-1.932;2023-05-21T02:11:56;101667.09;;;10.41;100.00
49645;BME280;36494;50.730;-1.932;2023-05-21T02:14:22;101668.70;;;10.35;100.00
49645;BME280;36494;50.730;-1.932;2023-05-21T02:16:47;101670.65;;;10.34;100.00
49645;BME280;36494;50.730;-1.932;2023-05-21T02:19:12;101665.58;;;10.30;100.00
49645;BME280;36494;50.730;-1.932;2023-05-21T02:21:38;101664.90;;;10.26;100.00
49645;BME280;36494;50.730;-1.932;2023-05-21T02:24:04;101666.20;;;10.24;100.00
49645;BME280;36494;50.730;-1.932;2023-05-21T02:26:29;101666.13;;;10.18;100.00
49645;BME280;36494;50.730;-1.932;2023-05-21T02:28:54;101665.61;;;10.18;100.00
49645;BME280;36494;50.730;-1.932;2023-05-21T02:31:19;101664.65;;;10.12;100.00
49645;BME280;36494;50.730;-1.932;2023-05-21T02:33:45;101665.45;;;10.07;100.00
49645;BME280;36494;50.730;-1.932;2023-05-21T02:36:10;101662.72;;;10.03;100.00
49645;BME280;36494;50.730;-1.932;2023-05-21T02:38:36;101663.36;;;9.98;100.00
49645;BME280;36494;50.730;-1.932;2023-05-21T02:41:01;101661.07;;;9.95;100.00
49645;BME280;36494;50.730;-1.932;2023-05-21T02:43:26;101656.84;;;9.93;100.00
49645;BME280;36494;50.730;-1.932;2023-05-21T02:45:52;101652.11;;;9.89;100.00
49645;BME280;36494;50.730;-1.932;2023-05-21T02:48:17;101651.26;;;9.86;100.00
49645;BME280;36494;50.730;-1.932;2023-05-21T02:50:43;101645.19;;;9.82;100.00
49645;BME280;36494;50.730;-1.932;2023-05-21T02:53:08;101645.82;;;9.80;100.00
49645;BME280;36494;50.730;-1.932;2023-05-21T02:55:33;101644.72;;;9.76;100.00
49645;BME280;36494;50.730;-1.932;2023-05-21T02:57:58;101646.11;;;9.72;100.00
49645;BME280;36494;50.730;-1.932;2023-05-21T03:00:24;101644.73;;;9.69;100.00
49645;BME280;36494;50.730;-1.932;2023-05-21T03:02:49;101639.71;;;9.65;100.00
49645;BME280;36494;50.730;-1.932;2023-05-21T03:05:15;101637.11;;;9.60;100.00
49645;BME280;36494;50.730;-1.932;2023-05-21T03:07:40;101636.80;;;9.57;100.00
49645;BME280;36494;50.730;-1.932;2023-05-21T03:10:06;101635.07;;;9.52;100.00
49645;BME280;36494;50.730;-1.932;2023-05-21T03:12:30;101634.23;;;9.48;100.00
49645;BME280;36494;50.730;-1.932;2023-05-21T03:14:56;101635.25;;;9.46;100.00
49645;BME280;36494;50.730;-1.932;2023-05-21T03:17:21;101631.76;;;9.39;100.00
49645;BME280;36494;50.730;-1.932;2023-05-21T03:19:46;101635.58;;;9.37;100.00
49645;BME280;36494;50.730;-1.932;2023-05-21T03:22:12;101637.46;;;9.36;100.00
49645;BME280;36494;50.730;-1.932;2023-05-21T03:24:37;101636.81;;;9.34;100.00
49645;BME280;36494;50.730;-1.932;2023-05-21T03:27:02;101636.49;;;9.27;100.00
49645;BME280;36494;50.730;-1.932;2023-05-21T03:29:28;101632.97;;;9.24;100.00
49645;BME280;36494;50.730;-1.932;2023-05-21T03:31:53;101631.38;;;9.22;100.00
49645;BME280;36494;50.730;-1.932;2023-05-21T03:34:19;101631.43;;;9.20;100.00
49645;BME280;36494;50.730;-1.932;2023-05-21T03:36:44;101635.58;;;9.16;100.00
49645;BME280;36494;50.730;-1.932;2023-05-21T03:39:09;101633.58;;;9.14;100.00
49645;BME280;36494;50.730;-1.932;2023-05-21T03:41:35;101635.37;;;9.12;100.00
49645;BME280;36494;50.730;-1.932;2023-05-21T03:44:00;101633.78;;;9.10;100.00
49645;BME280;36494;50.730;-1.932;2023-05-21T03:46:25;101637.24;;;9.09;100.00
49645;BME280;36494;50.730;-1.932;2023-05-21T03:48:51;101640.52;;;9.05;100.00
49645;BME280;36494;50.730;-1.932;2023-05-21T03:51:16;101640.57;;;9.04;100.00
49645;BME280;36494;50.730;-1.932;2023-05-21T03:53:41;101642.06;;;9.02;100.00
49645;BME280;36494;50.730;-1.932;2023-05-21T03:56:07;101641.91;;;8.98;100.00
49645;BME280;36494;50.730;-1.932;2023-05-21T03:58:32;101642.03;;;8.97;100.00
49645;BME280;36494;50.730;-1.932;2023-05-21T04:00:57;101645.23;;;8.95;100.00
49645;BME280;36494;50.730;-1.932;2023-05-21T04:03:22;101647.97;;;8.90;100.00
49645;BME280;36494;50.730;-1.932;2023-05-21T04:05:48;101648.41;;;8.90;100.00
49645;BME280;36494;50.730;-1.932;2023-05-21T04:08:13;101653.08;;;8.88;100.00
49645;BME280;36494;50.730;-1.932;2023-05-21T04:10:39;101655.09;;;8.83;100.00
49645;BME280;36494;50.730;-1.932;2023-05-21T04:13:04;101655.35;;;8.81;100.00
49645;BME280;36494;50.730;-1.932;2023-05-21T04:15:30;101659.67;;;8.78;100.00
49645;BME280;36494;50.730;-1.932;2023-05-21T04:17:55;101659.52;;;8.78;100.00
49645;BME280;36494;50.730;-1.932;2023-05-21T04:20:20;101657.57;;;8.75;100.00
49645;BME280;36494;50.730;-1.932;2023-05-21T04:22:46;101660.87;;;8.75;100.00
49645;BME280;36494;50.730;-1.932;2023-05-21T04:25:11;101662.36;;;8.72;100.00
49645;BME280;36494;50.730;-1.932;2023-05-21T04:27:36;101662.92;;;8.71;100.00
49645;BME280;36494;50.730;-1.932;2023-05-21T04:30:02;101663.75;;;8.69;100.00
49645;BME280;36494;50.730;-1.932;2023-05-21T04:32:26;101661.70;;;8.69;100.00
49645;BME280;36494;50.730;-1.932;2023-05-21T04:34:52;101663.27;;;8.68;100.00
49645;BME280;36494;50.730;-1.932;2023-05-21T04:37:17;101661.75;;;8.64;100.00
49645;BME280;36494;50.730;-1.932;2023-05-21T04:39:42;101666.78;;;8.65;100.00
49645;BME280;36494;50.730;-1.932;2023-05-21T04:42:08;101663.05;;;8.65;100.00
49645;BME280;36494;50.730;-1.932;2023-05-21T04:44:33;101663.93;;;8.63;100.00
49645;BME280;36494;50.730;-1.932;2023-05-21T04:46:58;101662.70;;;8.62;100.00
49645;BME280;36494;50.730;-1.932;2023-05-21T04:49:24;101658.84;;;8.62;100.00
49645;BME280;36494;50.730;-1.932;2023-05-21T04:51:49;101662.01;;;8.61;100.00
49645;BME280;36494;50.730;-1.932;2023-05-21T04:54:15;101662.98;;;8.61;100.00
49645;BME280;36494;50.730;-1.932;2023-05-21T04:56:40;101658.72;;;8.58;100.00
49645;BME280;36494;50.730;-1.932;2023-05-21T04:59:05;101655.19;;;8.57;100.00
49645;BME280;36494;50.730;-1.932;2023-05-21T05:01:32;101652.46;;;8.55;100.00
49645;BME280;36494;50.730;-1.932;2023-05-21T05:03:56;101651.35;;;8.58;100.00
49645;BME280;36494;50.730;-1.932;2023-05-21T05:06:22;101652.19;;;8.58;100.00
49645;BME280;36494;50.730;-1.932;2023-05-21T05:08:47;101650.58;;;8.58;100.00
49645;BME280;36494;50.730;-1.932;2023-05-21T05:11:13;101651.09;;;8.60;100.00
49645;BME280;36494;50.730;-1.932;2023-05-21T05:13:38;101655.02;;;8.60;100.00
49645;BME280;36494;50.730;-1.932;2023-05-21T05:16:04;101658.88;;;8.58;100.00
49645;BME280;36494;50.730;-1.932;2023-05-21T05:18:29;101658.79;;;8.60;100.00
49645;BME280;36494;50.730;-1.932;2023-05-21T05:20:54;101656.38;;;8.61;100.00
49645;BME280;36494;50.730;-1.932;2023-05-21T05:23:19;101656.63;;;8.63;100.00
49645;BME280;36494;50.730;-1.932;2023-05-21T05:25:45;101654.60;;;8.66;100.00
49645;BME280;36494;50.730;-1.932;2023-05-21T05:28:10;101655.66;;;8.64;100.00
49645;BME280;36494;50.730;-1.932;2023-05-21T05:30:36;101653.87;;;8.68;100.00
49645;BME280;36494;50.730;-1.932;2023-05-21T05:33:01;101653.39;;;8.69;100.00
49645;BME280;36494;50.730;-1.932;2023-05-21T05:35:26;101653.61;;;8.72;100.00
49645;BME280;36494;50.730;-1.932;2023-05-21T05:37:51;101652.56;;;8.75;100.00
49645;BME280;36494;50.730;-1.932;2023-05-21T05:40:16;101650.26;;;8.79;100.00
49645;BME280;36494;50.730;-1.932;2023-05-21T05:42:41;101649.67;;;8.82;100.00
49645;BME280;36494;50.730;-1.932;2023-05-21T05:45:07;101642.60;;;8.83;100.00
49645;BME280;36494;50.730;-1.932;2023-05-21T05:47:32;101642.33;;;8.87;100.00
49645;BME280;36494;50.730;-1.932;2023-05-21T05:49:57;101641.43;;;8.91;100.00
49645;BME280;36494;50.730;-1.932;2023-05-21T05:52:23;101641.34;;;8.95;100.00
49645;BME280;36494;50.730;-1.932;2023-05-21T05:54:48;101640.48;;;8.98;100.00
49645;BME280;36494;50.730;-1.932;2023-05-21T05:57:13;101639.93;;;9.02;100.00
49645;BME280;36494;50.730;-1.932;2023-05-21T05:59:39;101638.22;;;9.05;100.00
49645;BME280;36494;50.730;-1.932;2023-05-21T06:02:04;101635.69;;;9.06;100.00
49645;BME280;36494;50.730;-1.932;2023-05-21T06:04:30;101639.45;;;9.10;100.00
49645;BME280;36494;50.730;-1.932;2023-05-21T06:06:55;101638.44;;;9.13;100.00
49645;BME280;36494;50.730;-1.932;2023-05-21T06:09:21;101639.84;;;9.18;100.00
49645;BME280;36494;50.730;-1.932;2023-05-21T06:11:46;101642.03;;;9.19;100.00
49645;BME280;36494;50.730;-1.932;2023-05-21T06:14:11;101644.35;;;9.26;100.00
49645;BME280;36494;50.730;-1.932;2023-05-21T06:16:37;101645.30;;;9.31;100.00
49645;BME280;36494;50.730;-1.932;2023-05-21T06:19:02;101652.95;;;9.36;100.00
49645;BME280;36494;50.730;-1.932;2023-05-21T06:21:27;101652.49;;;9.42;100.00
49645;BME280;36494;50.730;-1.932;2023-05-21T06:23:53;101648.67;;;9.48;100.00
49645;BME280;36494;50.730;-1.932;2023-05-21T06:26:18;101647.37;;;9.53;100.00
49645;BME280;36494;50.730;-1.932;2023-05-21T06:28:43;101644.53;;;9.58;100.00
49645;BME280;36494;50.730;-1.932;2023-05-21T06:31:09;101643.22;;;9.64;100.00
49645;BME280;36494;50.730;-1.932;2023-05-21T06:33:34;101644.55;;;9.70;100.00
49645;BME280;36494;50.730;-1.932;2023-05-21T06:35:59;101637.19;;;9.77;100.00
49645;BME280;36494;50.730;-1.932;2023-05-21T06:38:24;101632.18;;;9.85;100.00
49645;BME280;36494;50.730;-1.932;2023-05-21T06:40:50;101632.18;;;9.91;100.00
49645;BME280;36494;50.730;-1.932;2023-05-21T06:43:15;101631.30;;;9.98;100.00
49645;BME280;36494;50.730;-1.932;2023-05-21T06:45:41;101631.45;;;10.04;100.00
49645;BME280;36494;50.730;-1.932;2023-05-21T06:48:06;101630.50;;;10.15;100.00
49645;BME280;36494;50.730;-1.932;2023-05-21T06:50:31;101633.58;;;10.23;100.00
49645;BME280;36494;50.730;-1.932;2023-05-21T06:52:57;101637.05;;;10.30;100.00
49645;BME280;36494;50.730;-1.932;2023-05-21T06:55:22;101642.09;;;10.37;100.00
49645;BME280;36494;50.730;-1.932;2023-05-21T06:57:48;101640.22;;;10.46;100.00
49645;BME280;36494;50.730;-1.932;2023-05-21T07:00:13;101638.10;;;10.55;100.00
49645;BME280;36494;50.730;-1.932;2023-05-21T07:02:38;101636.36;;;10.64;100.00
49645;BME280;36494;50.730;-1.932;2023-05-21T07:05:04;101640.75;;;10.72;100.00
49645;BME280;36494;50.730;-1.932;2023-05-21T07:07:29;101635.43;;;10.80;100.00
49645;BME280;36494;50.730;-1.932;2023-05-21T07:09:55;101633.46;;;10.87;100.00
49645;BME280;36494;50.730;-1.932;2023-05-21T07:12:20;101635.00;;;10.96;100.00
49645;BME280;36494;50.730;-1.932;2023-05-21T07:14:45;101634.85;;;11.02;100.00
49645;BME280;36494;50.730;-1.932;2023-05-21T07:17:11;101634.84;;;11.11;100.00
49645;BME280;36494;50.730;-1.932;2023-05-21T07:19:36;101635.22;;;11.19;100.00
49645;BME280;36494;50.730;-1.932;2023-05-21T07:22:01;101635.32;;;11.27;100.00
49645;BME280;36494;50.730;-1.932;2023-05-21T07:24:27;101634.63;;;11.35;100.00
49645;BME280;36494;50.730;-1.932;2023-05-21T07:26:52;101633.77;;;11.44;100.00
49645;BME280;36494;50.730;-1.932;2023-05-21T07:29:17;101627.77;;;11.51;100.00
49645;BME280;36494;50.730;-1.932;2023-05-21T07:31:43;101625.91;;;11.59;100.00
49645;BME280;36494;50.730;-1.932;2023-05-21T07:34:08;101628.23;;;11.69;100.00
49645;BME280;36494;50.730;-1.932;2023-05-21T07:36:33;101626.15;;;11.77;100.00
49645;BME280;36494;50.730;-1.932;2023-05-21T07:38:59;101627.88;;;11.87;100.00
49645;BME280;36494;50.730;-1.932;2023-05-21T07:41:24;101631.70;;;11.94;100.00
49645;BME280;36494;50.730;-1.932;2023-05-21T07:43:50;101633.77;;;12.03;100.00
49645;BME280;36494;50.730;-1.932;2023-05-21T07:46:15;101634.73;;;12.13;100.00
49645;BME280;36494;50.730;-1.932;2023-05-21T07:48:40;101631.61;;;12.19;100.00
49645;BME280;36494;50.730;-1.932;2023-05-21T07:51:05;101636.55;;;12.29;100.00
49645;BME280;36494;50.730;-1.932;2023-05-21T07:53:31;101635.22;;;12.40;100.00
49645;BME280;36494;50.730;-1.932;2023-05-21T07:55:56;101634.37;;;12.50;100.00
49645;BME280;36494;50.730;-1.932;2023-05-21T07:58:21;101638.39;;;12.60;100.00
49645;BME280;36494;50.730;-1.932;2023-05-21T08:00:47;101639.08;;;12.68;100.00
49645;BME280;36494;50.730;-1.932;2023-05-21T08:03:13;101641.65;;;12.75;100.00
49645;BME280;36494;50.730;-1.932;2023-05-21T08:05:37;101641.50;;;12.83;100.00
49645;BME280;36494;50.730;-1.932;2023-05-21T08:08:03;101640.89;;;12.95;100.00
49645;BME280;36494;50.730;-1.932;2023-05-21T08:10:28;101643.63;;;13.04;100.00
49645;BME280;36494;50.730;-1.932;2023-05-21T08:12:53;101643.04;;;13.14;100.00
49645;BME280;36494;50.730;-1.932;2023-05-21T08:15:19;101636.94;;;13.20;100.00
49645;BME280;36494;50.730;-1.932;2023-05-21T08:17:44;101633.97;;;13.32;100.00
49645;BME280;36494;50.730;-1.932;2023-05-21T08:20:10;101638.14;;;13.41;100.00
49645;BME280;36494;50.730;-1.932;2023-05-21T08:22:34;101640.13;;;13.50;100.00
49645;BME280;36494;50.730;-1.932;2023-05-21T08:25:00;101642.75;;;13.56;100.00
49645;BME280;36494;50.730;-1.932;2023-05-21T08:27:25;101639.84;;;13.65;100.00
49645;BME280;36494;50.730;-1.932;2023-05-21T08:29:50;101640.59;;;13.74;100.00
49645;BME280;36494;50.730;-1.932;2023-05-21T08:32:16;101638.35;;;13.82;100.00
49645;BME280;36494;50.730;-1.932;2023-05-21T08:34:41;101635.35;;;13.92;100.00
49645;BME280;36494;50.730;-1.932;2023-05-21T08:37:06;101628.98;;;13.99;100.00
49645;BME280;36494;50.730;-1.932;2023-05-21T08:39:32;101629.83;;;14.08;100.00
49645;BME280;36494;50.730;-1.932;2023-05-21T08:42:03;101625.92;;;14.14;100.00
49645;BME280;36494;50.730;-1.932;2023-05-21T08:44:24;101628.15;;;14.25;100.00
49645;BME280;36494;50.730;-1.932;2023-05-21T08:46:49;101634.32;;;14.31;100.00
49645;BME280;36494;50.730;-1.932;2023-05-21T08:49:15;101636.49;;;14.44;100.00
49645;BME280;36494;50.730;-1.932;2023-05-21T08:51:38;101630.46;;;14.55;100.00
49645;BME280;36494;50.730;-1.932;2023-05-21T08:54:04;101632.12;;;14.66;100.00
49645;BME280;36494;50.730;-1.932;2023-05-21T08:56:30;101631.18;;;14.78;100.00
49645;BME280;36494;50.730;-1.932;2023-05-21T08:58:55;101631.53;;;14.87;100.00
49645;BME280;36494;50.730;-1.932;2023-05-21T09:01:21;101633.13;;;14.92;100.00
49645;BME280;36494;50.730;-1.932;2023-05-21T09:03:46;101632.21;;;15.02;100.00
49645;BME280;36494;50.730;-1.932;2023-05-21T09:06:12;101640.07;;;15.14;100.00
49645;BME280;36494;50.730;-1.932;2023-05-21T09:08:40;101634.98;;;15.24;100.00
49645;BME280;36494;50.730;-1.932;2023-05-21T09:11:01;101632.37;;;15.32;100.00
49645;BME280;36494;50.730;-1.932;2023-05-21T09:13:28;101635.31;;;15.45;100.00
49645;BME280;36494;50.730;-1.932;2023-05-21T09:15:52;101630.86;;;15.54;100.00
49645;BME280;36494;50.730;-1.932;2023-05-21T09:18:17;101628.68;;;15.62;100.00
49645;BME280;36494;50.730;-1.932;2023-05-21T09:20:43;101625.57;;;15.70;100.00
49645;BME280;36494;50.730;-1.932;2023-05-21T09:23:08;101625.75;;;15.84;100.00
49645;BME280;36494;50.730;-1.932;2023-05-21T09:25:36;101616.16;;;15.90;100.00
49645;BME280;36494;50.730;-1.932;2023-05-21T09:27:59;101618.53;;;15.97;100.00
49645;BME280;36494;50.730;-1.932;2023-05-21T09:30:24;101620.65;;;16.10;100.00
49645;BME280;36494;50.730;-1.932;2023-05-21T09:32:53;101622.34;;;16.18;100.00
49645;BME280;36494;50.730;-1.932;2023-05-21T09:35:15;101622.86;;;16.29;100.00
49645;BME280;36494;50.730;-1.932;2023-05-21T09:37:41;101618.36;;;16.41;100.00
49645;BME280;36494;50.730;-1.932;2023-05-21T09:40:12;101614.95;;;16.66;100.00
49645;BME280;36494;50.730;-1.932;2023-05-21T09:42:32;101612.86;;;17.04;100.00
49645;BME280;36494;50.730;-1.932;2023-05-21T09:44:56;101602.09;;;17.37;100.00
49645;BME280;36494;50.730;-1.932;2023-05-21T09:47:21;101601.73;;;17.72;100.00
49645;BME280;36494;50.730;-1.932;2023-05-21T09:49:48;101596.52;;;17.89;100.00
49645;BME280;36494;50.730;-1.932;2023-05-21T09:52:12;101599.27;;;18.17;100.00
49645;BME280;36494;50.730;-1.932;2023-05-21T09:54:38;101598.92;;;18.35;100.00
49645;BME280;36494;50.730;-1.932;2023-05-21T09:57:02;101597.37;;;18.45;100.00
49645;BME280;36494;50.730;-1.932;2023-05-21T09:59:36;101593.16;;;18.74;100.00
49645;BME280;36494;50.730;-1.932;2023-05-21T10:01:53;101596.64;;;18.92;100.00
49645;BME280;36494;50.730;-1.932;2023-05-21T10:04:18;101588.37;;;19.00;100.00
49645;BME280;36494;50.730;-1.932;2023-05-21T10:06:45;101589.65;;;19.15;100.00
49645;BME280;36494;50.730;-1.932;2023-05-21T10:09:10;101591.04;;;19.34;100.00
49645;BME280;36494;50.730;-1.932;2023-05-21T10:11:36;101586.52;;;19.51;100.00
49645;BME280;36494;50.730;-1.932;2023-05-21T10:14:04;101583.50;;;19.61;100.00
49645;BME280;36494;50.730;-1.932;2023-05-21T10:16:27;101580.21;;;19.89;100.00
49645;BME280;36494;50.730;-1.932;2023-05-21T10:18:52;101575.78;;;20.09;100.00
49645;BME280;36494;50.730;-1.932;2023-05-21T10:21:17;101573.40;;;20.25;100.00
49645;BME280;36494;50.730;-1.932;2023-05-21T10:23:42;101576.88;;;20.42;100.00
49645;BME280;36494;50.730;-1.932;2023-05-21T10:26:07;101571.39;;;20.48;99.93
49645;BME280;36494;50.730;-1.932;2023-05-21T10:28:33;101571.17;;;20.57;99.06
49645;BME280;36494;50.730;-1.932;2023-05-21T10:30:58;101574.61;;;20.73;99.88
49645;BME280;36494;50.730;-1.932;2023-05-21T10:33:24;101573.56;;;20.73;96.56
49645;BME280;36494;50.730;-1.932;2023-05-21T10:35:49;101564.17;;;20.86;96.83
49645;BME280;36494;50.730;-1.932;2023-05-21T10:38:15;101560.92;;;21.07;96.16
49645;BME280;36494;50.730;-1.932;2023-05-21T10:40:40;101557.30;;;21.20;95.18
49645;BME280;36494;50.730;-1.932;2023-05-21T10:45:41;101555.14;;;21.26;92.56
49645;BME280;36494;50.730;-1.932;2023-05-21T10:48:05;101549.46;;;21.23;89.45
49645;BME280;36494;50.730;-1.932;2023-05-21T10:50:41;101549.90;;;21.22;87.63
49645;BME280;36494;50.730;-1.932;2023-05-21T10:52:59;101545.56;;;21.50;89.61
49645;BME280;36494;50.730;-1.932;2023-05-21T10:55:20;101549.17;;;21.69;91.02
49645;BME280;36494;50.730;-1.932;2023-05-21T10:57:45;101544.25;;;21.92;93.00
49645;BME280;36494;50.730;-1.932;2023-05-21T11:00:02;101543.52;;;22.04;91.06
49645;BME280;36494;50.730;-1.932;2023-05-21T11:02:28;101544.70;;;22.09;89.37
49645;BME280;36494;50.730;-1.932;2023-05-21T11:04:57;101546.37;;;22.13;91.87
49645;BME280;36494;50.730;-1.932;2023-05-21T11:07:22;101539.53;;;22.47;92.22
49645;BME280;36494;50.730;-1.932;2023-05-21T11:09:43;101543.18;;;22.44;89.43
49645;BME280;36494;50.730;-1.932;2023-05-21T11:12:08;101543.27;;;22.42;85.96
49645;BME280;36494;50.730;-1.932;2023-05-21T11:14:37;101537.27;;;22.70;89.06
49645;BME280;36494;50.730;-1.932;2023-05-21T11:17:00;101536.97;;;22.83;86.57
49645;BME280;36494;50.730;-1.932;2023-05-21T11:19:34;101538.91;;;22.72;83.57
49645;BME280;36494;50.730;-1.932;2023-05-21T11:21:50;101537.36;;;22.50;84.59
49645;BME280;36494;50.730;-1.932;2023-05-21T11:24:18;101537.60;;;22.42;84.60
49645;BME280;36494;50.730;-1.932;2023-05-21T11:26:58;101534.39;;;22.70;91.62
49645;BME280;36494;50.730;-1.932;2023-05-21T11:29:06;101528.73;;;22.93;86.21
49645;BME280;36494;50.730;-1.932;2023-05-21T11:31:32;101525.50;;;23.05;83.87
49645;BME280;36494;50.730;-1.932;2023-05-21T11:36:21;101528.61;;;23.22;85.07
49645;BME280;36494;50.730;-1.932;2023-05-21T11:41:11;101524.13;;;23.51;84.61
49645;BME280;36494;50.730;-1.932;2023-05-21T11:43:39;101526.66;;;23.36;82.14
49645;BME280;36494;50.730;-1.932;2023-05-21T11:46:03;101524.30;;;23.57;81.94
49645;BME280;36494;50.730;-1.932;2023-05-21T11:48:29;101515.47;;;23.65;82.21
49645;BME280;36494;50.730;-1.932;2023-05-21T11:50:53;101518.18;;;23.72;80.86
49645;BME280;36494;50.730;-1.932;2023-05-21T11:53:19;101516.26;;;23.95;80.71
49645;BME280;36494;50.730;-1.932;2023-05-21T11:55:45;101515.77;;;23.79;80.40
49645;BME280;36494;50.730;-1.932;2023-05-21T11:58:11;101517.16;;;23.72;78.63
49645;BME280;36494;50.730;-1.932;2023-05-21T12:00:38;101517.62;;;24.12;80.52
49645;BME280;36494;50.730;-1.932;2023-05-21T12:02:59;101521.42;;;24.05;79.53
49645;BME280;36494;50.730;-1.932;2023-05-21T12:05:25;101517.46;;;24.19;78.49
49645;BME280;36494;50.730;-1.932;2023-05-21T12:07:50;101514.18;;;24.18;76.25
49645;BME280;36494;50.730;-1.932;2023-05-21T12:10:15;101522.91;;;24.17;75.88
49645;BME280;36494;50.730;-1.932;2023-05-21T12:12:40;101516.15;;;24.12;74.70
49645;BME280;36494;50.730;-1.932;2023-05-21T12:15:07;101509.10;;;24.38;76.46
49645;BME280;36494;50.730;-1.932;2023-05-21T12:17:32;101506.18;;;24.41;74.35
49645;BME280;36494;50.730;-1.932;2023-05-21T12:19:57;101510.44;;;24.56;75.00
49645;BME280;36494;50.730;-1.932;2023-05-21T12:22:22;101503.88;;;24.38;71.15
49645;BME280;36494;50.730;-1.932;2023-05-21T12:24:47;101508.05;;;24.20;74.54
49645;BME280;36494;50.730;-1.932;2023-05-21T12:27:13;101501.04;;;24.31;73.46
49645;BME280;36494;50.730;-1.932;2023-05-21T12:29:39;101502.02;;;24.39;78.28
49645;BME280;36494;50.730;-1.932;2023-05-21T12:32:04;101490.73;;;24.44;72.12